createdAt,value
2019-06-26T00:00:25.407Z,27.49
2019-06-26T00:01:25.501Z,27.52
2019-06-26T00:02:25.275Z,27.50
2019-06-26T00:03:25.308Z,27.39
2019-06-26T00:04:25.106Z,27.46
2019-06-26T00:05:25.032Z,27.27
2019-06-26T00:06:25.126Z,27.35
2019-06-26T00:07:24.890Z,27.33
2019-06-26T00:08:24.799Z,27.31
2019-06-26T00:09:24.942Z,27.30
2019-06-26T00:10:24.638Z,27.33
2019-06-26T00:11:24.561Z,27.24
2019-06-26T00:12:24.579Z,27.30
2019-06-26T00:13:26.741Z,27.24
2019-06-26T00:14:24.349Z,27.28
2019-06-26T00:15:24.507Z,27.24
2019-06-26T00:16:24.204Z,27.27
2019-06-26T00:17:24.202Z,27.25
2019-06-26T00:18:24.054Z,27.15
2019-06-26T00:19:23.982Z,27.16
2019-06-26T00:20:23.931Z,27.25
2019-06-26T00:21:23.996Z,27.11
2019-06-26T00:22:23.738Z,27.20
2019-06-26T00:23:23.804Z,27.11
2019-06-26T00:24:23.563Z,27.13
2019-06-26T00:25:23.615Z,27.11
2019-06-26T00:26:23.411Z,26.98
2019-06-26T00:27:23.454Z,27.01
2019-06-26T00:28:23.261Z,26.98
2019-06-26T00:29:23.174Z,26.91
2019-06-26T00:30:23.235Z,26.87
2019-06-26T00:31:23.028Z,26.83
2019-06-26T00:32:22.960Z,26.86
2019-06-26T00:33:23.058Z,26.84
2019-06-26T00:34:22.796Z,26.90
2019-06-26T00:35:22.710Z,26.86
2019-06-26T00:36:22.661Z,26.81
2019-06-26T00:37:22.582Z,26.73
2019-06-26T00:38:22.498Z,26.75
2019-06-26T00:39:22.485Z,26.72
2019-06-26T00:40:22.326Z,26.76
2019-06-26T00:41:22.246Z,26.69
2019-06-26T00:42:22.321Z,26.76
2019-06-26T00:43:22.103Z,26.73
2019-06-26T00:44:22.022Z,26.73
2019-06-26T00:45:22.105Z,26.68
2019-06-26T00:46:21.872Z,26.71
2019-06-26T00:47:21.809Z,26.76
2019-06-26T00:48:21.945Z,26.69
2019-06-26T00:49:21.642Z,26.71
2019-06-26T00:50:21.562Z,26.69
2019-06-26T00:51:21.535Z,26.66
2019-06-26T00:52:21.414Z,26.66
2019-06-26T00:53:21.327Z,26.66
2019-06-26T00:54:21.245Z,26.53
2019-06-26T00:55:21.352Z,26.50
2019-06-26T00:56:21.094Z,26.44
2019-06-26T00:57:21.027Z,26.49
2019-06-26T00:58:20.936Z,26.42
2019-06-26T00:59:20.970Z,26.46
2019-06-26T01:00:20.792Z,26.39
2019-06-26T01:01:20.778Z,26.36
2019-06-26T01:02:20.643Z,26.38
2019-06-26T01:03:20.586Z,26.29
2019-06-26T01:04:20.475Z,26.36
2019-06-26T01:05:20.393Z,26.29
2019-06-26T01:06:20.402Z,26.24
2019-06-26T01:07:20.248Z,26.32
2019-06-26T01:08:20.201Z,26.27
2019-06-26T01:09:20.217Z,26.20
2019-06-26T01:10:20.016Z,26.24
2019-06-26T01:11:21.663Z,26.23
2019-06-26T01:12:19.872Z,26.23
2019-06-26T01:13:19.836Z,26.20
2019-06-26T01:14:19.696Z,26.17
2019-06-26T01:15:19.647Z,26.24
2019-06-26T01:16:19.545Z,26.29
2019-06-26T01:17:19.690Z,26.23
2019-06-26T01:18:19.391Z,26.27
2019-06-26T01:19:19.306Z,26.19
2019-06-26T01:20:19.272Z,26.16
2019-06-26T01:21:19.157Z,26.13
2019-06-26T01:22:19.097Z,26.17
2019-06-26T01:23:19.081Z,26.12
2019-06-26T01:24:18.925Z,26.17
2019-06-26T01:25:18.854Z,26.24
2019-06-26T01:26:18.907Z,26.20
2019-06-26T01:27:18.744Z,26.11
2019-06-26T01:28:18.610Z,26.09
2019-06-26T01:29:18.719Z,26.11
2019-06-26T01:30:18.461Z,26.13
2019-06-26T01:31:18.519Z,26.04
2019-06-26T01:32:18.360Z,26.09
2019-06-26T01:33:18.332Z,26.08
2019-06-26T01:34:18.142Z,26.08
2019-06-26T01:35:18.135Z,26.04
2019-06-26T01:36:17.995Z,25.98
2019-06-26T01:37:17.976Z,26.00
2019-06-26T01:38:17.841Z,25.97
2019-06-26T01:39:17.959Z,25.91
2019-06-26T01:40:17.678Z,25.89
2019-06-26T01:41:17.767Z,25.90
2019-06-26T01:42:17.535Z,25.90
2019-06-26T01:43:17.575Z,25.90
2019-06-26T01:44:17.373Z,25.81
2019-06-26T01:45:17.382Z,25.78
2019-06-26T01:46:17.220Z,25.61
2019-06-26T01:47:17.157Z,25.74
2019-06-26T01:48:17.203Z,25.69
2019-06-26T01:49:16.981Z,25.71
2019-06-26T01:50:16.905Z,25.61
2019-06-26T01:51:17.018Z,25.74
2019-06-26T01:52:16.761Z,25.64
2019-06-26T01:53:16.853Z,25.64
2019-06-26T01:54:16.594Z,25.66
2019-06-26T01:55:16.516Z,25.75
2019-06-26T01:56:16.643Z,25.63
2019-06-26T01:57:16.363Z,25.76
2019-06-26T01:58:16.302Z,25.69
2019-06-26T01:59:16.250Z,25.64
2019-06-26T02:00:16.128Z,25.71
2019-06-26T02:01:16.053Z,25.59
2019-06-26T02:02:16.065Z,25.56
2019-06-26T02:03:15.900Z,25.56
2019-06-26T02:04:15.919Z,25.46
2019-06-26T02:05:15.883Z,25.49
2019-06-26T02:06:15.666Z,25.51
2019-06-26T02:07:15.578Z,25.48
2019-06-26T02:08:15.730Z,25.42
2019-06-26T02:09:15.427Z,25.44
2019-06-26T02:10:15.352Z,25.42
2019-06-26T02:11:15.305Z,25.35
2019-06-26T02:12:15.194Z,25.36
2019-06-26T02:13:15.129Z,25.29
2019-06-26T02:14:30.036Z,25.23
2019-06-26T02:15:14.953Z,25.27
2019-06-26T02:16:14.879Z,25.23
2019-06-26T02:17:14.932Z,25.26
2019-06-26T02:18:14.749Z,25.27
2019-06-26T02:19:14.646Z,25.31
2019-06-26T02:20:14.751Z,25.23
2019-06-26T02:21:14.485Z,25.26
2019-06-26T02:22:15.582Z,25.24
2019-06-26T02:23:14.342Z,25.16
2019-06-26T02:24:14.366Z,25.20
2019-06-26T02:25:14.174Z,25.17
2019-06-26T02:26:14.103Z,25.11
2019-06-26T02:27:14.180Z,25.08
2019-06-26T02:28:13.955Z,25.09
2019-06-26T02:29:13.877Z,25.12
2019-06-26T02:30:13.999Z,25.05
2019-06-26T02:31:13.709Z,25.05
2019-06-26T02:32:13.830Z,25.09
2019-06-26T02:33:13.569Z,25.04
2019-06-26T02:34:13.612Z,25.04
2019-06-26T02:35:13.401Z,24.98
2019-06-26T02:36:13.316Z,24.99
2019-06-26T02:37:13.249Z,24.99
2019-06-26T02:38:13.190Z,24.97
2019-06-26T02:39:13.082Z,24.89
2019-06-26T02:40:13.006Z,24.97
2019-06-26T02:41:12.928Z,24.97
2019-06-26T02:42:13.055Z,24.94
2019-06-26T02:43:12.787Z,24.83
2019-06-26T02:44:12.691Z,24.79
2019-06-26T02:45:12.614Z,24.75
2019-06-26T02:46:12.677Z,24.79
2019-06-26T02:47:19.751Z,24.80
2019-06-26T02:48:12.509Z,24.86
2019-06-26T02:49:12.302Z,24.83
2019-06-26T02:50:12.299Z,24.89
2019-06-26T02:51:12.147Z,24.86
2019-06-26T02:52:12.065Z,24.87
2019-06-26T02:53:12.134Z,24.86
2019-06-26T02:54:11.912Z,24.86
2019-06-26T02:55:11.839Z,24.84
2019-06-26T02:56:11.917Z,24.79
2019-06-26T02:57:11.681Z,24.86
2019-06-26T02:58:11.617Z,24.83
2019-06-26T02:59:11.730Z,24.89
2019-06-26T03:00:11.445Z,24.84
2019-06-26T03:01:11.362Z,24.80
2019-06-26T03:02:11.344Z,24.86
2019-06-26T03:03:11.219Z,24.87
2019-06-26T03:04:11.152Z,24.79
2019-06-26T03:05:11.050Z,24.83
2019-06-26T03:06:11.163Z,24.77
2019-06-26T03:07:10.895Z,24.86
2019-06-26T03:08:10.833Z,24.82
2019-06-26T03:09:10.754Z,24.80
2019-06-26T03:10:10.666Z,24.84
2019-06-26T03:11:10.583Z,24.84
2019-06-26T03:12:10.589Z,24.80
2019-06-26T03:13:10.440Z,24.83
2019-06-26T03:14:10.403Z,24.70
2019-06-26T03:15:10.278Z,24.75
2019-06-26T03:16:10.408Z,24.71
2019-06-26T03:17:10.109Z,24.66
2019-06-26T03:18:10.254Z,24.66
2019-06-26T03:19:09.963Z,24.63
2019-06-26T03:20:10.045Z,24.70
2019-06-26T03:21:09.793Z,24.64
2019-06-26T03:22:09.721Z,24.60
2019-06-26T03:23:09.877Z,24.55
2019-06-26T03:24:09.560Z,24.59
2019-06-26T03:25:09.490Z,24.61
2019-06-26T03:26:09.474Z,24.55
2019-06-26T03:27:09.362Z,24.60
2019-06-26T03:28:09.260Z,24.55
2019-06-26T03:29:09.266Z,24.68
2019-06-26T03:30:09.097Z,24.74
2019-06-26T03:31:09.023Z,24.82
2019-06-26T03:32:09.084Z,24.80
2019-06-26T03:33:08.873Z,24.77
2019-06-26T03:34:08.892Z,24.84
2019-06-26T03:35:08.701Z,24.84
2019-06-26T03:36:08.624Z,24.86
2019-06-26T03:37:08.554Z,24.90
2019-06-26T03:38:08.551Z,24.84
2019-06-26T03:39:08.401Z,24.83
2019-06-26T03:40:08.309Z,24.83
2019-06-26T03:41:08.234Z,24.86
2019-06-26T03:42:08.329Z,24.84
2019-06-26T03:43:08.133Z,24.82
2019-06-26T03:44:07.996Z,24.84
2019-06-26T03:45:24.112Z,24.84
2019-06-26T03:46:07.842Z,24.83
2019-06-26T03:47:07.764Z,24.83
2019-06-26T03:48:07.785Z,24.86
2019-06-26T03:49:07.605Z,24.86
2019-06-26T03:50:07.564Z,24.86
2019-06-26T03:51:07.455Z,24.82
2019-06-26T03:52:07.575Z,24.86
2019-06-26T03:53:07.341Z,24.79
2019-06-26T03:54:07.387Z,24.79
2019-06-26T03:55:07.131Z,24.75
2019-06-26T03:56:07.194Z,24.64
2019-06-26T03:57:06.980Z,24.66
2019-06-26T03:58:06.904Z,24.67
2019-06-26T03:59:07.042Z,24.64
2019-06-26T04:00:06.743Z,24.67
2019-06-26T04:01:06.669Z,24.67
2019-06-26T04:02:06.624Z,24.66
2019-06-26T04:03:06.510Z,24.70
2019-06-26T04:04:06.460Z,24.74
2019-06-26T04:05:06.349Z,24.74
2019-06-26T04:06:06.439Z,24.68
2019-06-26T04:07:06.215Z,24.66
2019-06-26T04:08:06.118Z,24.68
2019-06-26T04:09:06.081Z,24.79
2019-06-26T04:10:05.958Z,24.79
2019-06-26T04:11:05.879Z,24.83
2019-06-26T04:12:05.879Z,24.82
2019-06-26T04:13:05.723Z,24.84
2019-06-26T04:14:05.662Z,24.80
2019-06-26T04:15:05.679Z,24.82
2019-06-26T04:16:05.493Z,24.83
2019-06-26T04:17:05.419Z,24.83
2019-06-26T04:18:05.498Z,24.86
2019-06-26T04:19:05.266Z,24.79
2019-06-26T04:20:05.307Z,24.86
2019-06-26T04:21:05.110Z,24.80
2019-06-26T04:22:05.116Z,24.90
2019-06-26T04:23:04.945Z,24.89
2019-06-26T04:24:04.969Z,24.99
2019-06-26T04:25:04.787Z,24.89
2019-06-26T04:26:04.729Z,24.84
2019-06-26T04:27:04.632Z,24.97
2019-06-26T04:28:06.401Z,24.92
2019-06-26T04:29:04.485Z,24.93
2019-06-26T04:30:04.553Z,25.01
2019-06-26T04:31:04.314Z,25.04
2019-06-26T04:32:04.361Z,25.05
2019-06-26T04:33:04.167Z,25.05
2019-06-26T04:34:04.199Z,25.04
2019-06-26T04:35:04.007Z,25.09
2019-06-26T04:36:03.978Z,25.11
2019-06-26T04:37:03.849Z,25.12
2019-06-26T04:38:03.989Z,25.11
2019-06-26T04:39:03.706Z,25.09
2019-06-26T04:40:03.805Z,25.22
2019-06-26T04:41:03.546Z,25.27
2019-06-26T04:42:03.633Z,25.23
2019-06-26T04:43:03.385Z,25.31
2019-06-26T04:44:03.313Z,25.44
2019-06-26T04:45:03.227Z,25.46
2019-06-26T04:46:03.225Z,25.49
2019-06-26T04:47:03.076Z,25.54
2019-06-26T04:48:05.972Z,25.63
2019-06-26T04:49:02.930Z,25.59
2019-06-26T04:50:03.050Z,25.57
2019-06-26T04:51:02.764Z,25.61
2019-06-26T04:52:02.680Z,25.64
2019-06-26T04:53:02.612Z,25.63
2019-06-26T04:54:02.544Z,25.64
2019-06-26T04:55:02.447Z,25.69
2019-06-26T04:56:02.472Z,25.60
2019-06-26T04:57:02.301Z,25.74
2019-06-26T04:58:02.220Z,25.63
2019-06-26T04:59:02.316Z,25.66
2019-06-26T05:00:02.190Z,25.69
2019-06-26T05:01:02.000Z,25.71
2019-06-26T05:02:02.102Z,25.75
2019-06-26T05:03:01.829Z,25.74
2019-06-26T05:04:01.823Z,25.76
2019-06-26T05:05:01.744Z,25.86
2019-06-26T05:06:01.609Z,25.94
2019-06-26T05:07:01.522Z,25.91
2019-06-26T05:08:01.529Z,25.91
2019-06-26T05:09:01.383Z,25.89
2019-06-26T05:10:01.345Z,26.00
2019-06-26T05:11:01.222Z,26.08
2019-06-26T05:12:01.157Z,26.21
2019-06-26T05:13:01.069Z,26.27
2019-06-26T05:14:01.051Z,26.27
2019-06-26T05:15:00.904Z,26.28
2019-06-26T05:16:13.820Z,26.34
2019-06-26T05:17:00.754Z,26.46
2019-06-26T05:18:00.691Z,26.46
2019-06-26T05:19:00.617Z,26.46
2019-06-26T05:20:00.531Z,26.51
2019-06-26T05:21:00.455Z,26.60
2019-06-26T05:22:00.389Z,26.71
2019-06-26T05:23:00.294Z,26.68
2019-06-26T05:24:00.234Z,26.72
2019-06-26T05:25:00.240Z,26.69
2019-06-26T05:26:00.068Z,26.68
2019-06-26T05:26:59.999Z,26.68
2019-06-26T05:28:00.020Z,26.76
2019-06-26T05:28:59.849Z,26.69
2019-06-26T05:29:59.790Z,26.71
2019-06-26T05:30:59.686Z,26.69
2019-06-26T05:31:59.609Z,26.72
2019-06-26T05:32:59.645Z,26.73
2019-06-26T05:33:59.478Z,26.81
2019-06-26T05:34:59.384Z,26.81
2019-06-26T05:35:59.303Z,26.90
2019-06-26T05:36:59.295Z,27.02
2019-06-26T05:37:59.158Z,26.98
2019-06-26T05:38:59.101Z,27.08
2019-06-26T05:39:59.075Z,27.13
2019-06-26T05:40:58.928Z,27.13
2019-06-26T05:41:58.852Z,27.20
2019-06-26T05:42:58.893Z,27.28
2019-06-26T05:43:58.711Z,27.15
2019-06-26T05:44:58.624Z,27.20
2019-06-26T05:45:58.763Z,27.27
2019-06-26T05:46:58.471Z,27.34
2019-06-26T05:47:58.399Z,27.48
2019-06-26T05:48:58.336Z,27.52
2019-06-26T05:49:58.324Z,27.66
2019-06-26T05:50:58.192Z,27.62
2019-06-26T05:51:58.096Z,27.66
2019-06-26T05:52:58.022Z,27.76
2019-06-26T05:53:58.197Z,27.87
2019-06-26T05:54:57.876Z,27.93
2019-06-26T05:55:57.804Z,27.84
2019-06-26T05:56:57.727Z,27.83
2019-06-26T05:57:57.761Z,27.72
2019-06-26T05:58:57.591Z,27.81
2019-06-26T05:59:57.547Z,27.84
2019-06-26T06:00:57.439Z,27.84
2019-06-26T06:01:57.379Z,27.86
2019-06-26T06:02:57.280Z,27.87
2019-06-26T06:03:57.214Z,27.90
2019-06-26T06:04:57.200Z,27.87
2019-06-26T06:05:57.068Z,27.90
2019-06-26T06:06:56.978Z,28.02
2019-06-26T06:07:57.010Z,27.88
2019-06-26T06:08:56.902Z,28.03
2019-06-26T06:09:56.852Z,28.03
2019-06-26T06:10:58.313Z,28.02
2019-06-26T06:11:56.625Z,28.08
2019-06-26T06:12:56.534Z,28.15
2019-06-26T06:13:56.474Z,28.21
2019-06-26T06:14:56.475Z,28.35
2019-06-26T06:15:56.307Z,28.39
2019-06-26T06:16:56.236Z,28.54
2019-06-26T06:17:56.257Z,28.42
2019-06-26T06:18:56.094Z,28.36
2019-06-26T06:19:56.024Z,28.32
2019-06-26T06:20:56.073Z,28.42
2019-06-26T06:21:55.871Z,28.40
2019-06-26T06:22:55.791Z,28.36
2019-06-26T06:23:55.892Z,28.28
2019-06-26T06:24:55.878Z,28.38
2019-06-26T06:25:55.587Z,28.48
2019-06-26T06:26:55.706Z,28.36
2019-06-26T06:27:55.424Z,28.40
2019-06-26T06:28:55.376Z,28.52
2019-06-26T06:29:55.548Z,28.58
2019-06-26T06:30:55.204Z,28.62
2019-06-26T06:31:55.330Z,28.65
2019-06-26T06:32:55.070Z,28.61
2019-06-26T06:33:54.989Z,28.72
2019-06-26T06:34:54.970Z,28.76
2019-06-26T06:35:54.837Z,28.92
2019-06-26T06:36:54.765Z,28.82
2019-06-26T06:37:54.749Z,28.82
2019-06-26T06:38:54.617Z,28.83
2019-06-26T06:39:54.563Z,29.03
2019-06-26T06:40:54.569Z,29.12
2019-06-26T06:41:54.408Z,29.10
2019-06-26T06:42:54.328Z,28.98
2019-06-26T06:43:54.283Z,28.91
2019-06-26T06:44:54.201Z,28.87
2019-06-26T06:45:54.191Z,28.95
2019-06-26T06:47:04.066Z,29.03
2019-06-26T06:47:54.026Z,29.12
2019-06-26T06:48:53.910Z,29.20
2019-06-26T06:49:54.040Z,29.27
2019-06-26T06:50:53.755Z,29.45
2019-06-26T06:51:53.820Z,29.51
2019-06-26T06:52:53.619Z,29.64
2019-06-26T06:53:53.628Z,29.67
2019-06-26T06:54:53.490Z,29.71
2019-06-26T06:55:53.436Z,29.88
2019-06-26T06:56:53.323Z,29.81
2019-06-26T06:57:53.448Z,29.69
2019-06-26T06:58:53.207Z,29.70
2019-06-26T06:59:53.295Z,29.67
2019-06-26T07:00:53.089Z,29.63
2019-06-26T07:01:53.067Z,29.60
2019-06-26T07:02:52.899Z,29.66
2019-06-26T07:03:52.873Z,29.86
2019-06-26T07:04:52.769Z,29.78
2019-06-26T07:05:52.686Z,29.71
2019-06-26T07:06:52.846Z,29.86
2019-06-26T07:07:52.543Z,29.78
2019-06-26T07:08:52.493Z,29.91
2019-06-26T07:09:52.561Z,29.99
2019-06-26T07:10:52.331Z,30.06
2019-06-26T07:11:52.316Z,30.13
2019-06-26T07:12:52.193Z,30.01
2019-06-26T07:13:52.500Z,30.11
2019-06-26T07:14:52.079Z,30.06
2019-06-26T07:16:06.926Z,30.08
2019-06-26T07:16:51.907Z,29.97
2019-06-26T07:17:51.840Z,30.13
2019-06-26T07:18:51.977Z,30.06
2019-06-26T07:19:51.716Z,29.95
2019-06-26T07:20:51.627Z,30.06
2019-06-26T07:21:51.767Z,29.97
2019-06-26T07:22:51.495Z,30.11
2019-06-26T07:23:51.418Z,30.13
2019-06-26T07:24:51.376Z,29.99
2019-06-26T07:25:52.981Z,30.03
2019-06-26T07:26:52.657Z,30.13
2019-06-26T07:27:51.148Z,30.23
2019-06-26T07:28:51.201Z,30.28
2019-06-26T07:29:51.017Z,30.26
2019-06-26T07:30:50.936Z,30.34
2019-06-26T07:31:51.018Z,30.40
2019-06-26T07:32:50.867Z,30.48
2019-06-26T07:33:50.760Z,30.44
2019-06-26T07:34:50.750Z,30.45
2019-06-26T07:35:50.587Z,30.67
2019-06-26T07:36:50.643Z,30.61
2019-06-26T07:37:50.463Z,30.57
2019-06-26T07:38:51.563Z,30.49
2019-06-26T07:39:50.326Z,30.59
2019-06-26T07:40:50.343Z,30.59
2019-06-26T07:41:50.195Z,30.48
2019-06-26T07:42:50.156Z,30.49
2019-06-26T07:43:50.048Z,30.30
2019-06-26T07:44:49.989Z,30.44
2019-06-26T07:45:49.972Z,30.36
2019-06-26T07:46:49.843Z,30.51
2019-06-26T07:47:49.770Z,30.46
2019-06-26T07:48:49.900Z,30.44
2019-06-26T07:49:49.643Z,30.42
2019-06-26T07:50:49.564Z,30.63
2019-06-26T07:51:49.710Z,30.60
2019-06-26T07:52:49.505Z,30.60
2019-06-26T07:53:49.364Z,30.53
2019-06-26T07:54:49.308Z,30.46
2019-06-26T07:55:49.227Z,30.57
2019-06-26T07:56:49.184Z,30.60
2019-06-26T07:57:49.136Z,30.63
2019-06-26T07:58:49.016Z,30.48
2019-06-26T07:59:49.014Z,30.42
2019-06-26T08:00:48.899Z,30.42
2019-06-26T08:01:48.820Z,30.79
2019-06-26T08:02:48.759Z,30.86
2019-06-26T08:03:48.690Z,30.91
2019-06-26T08:04:48.656Z,30.91
2019-06-26T08:05:48.544Z,30.76
2019-06-26T08:06:48.583Z,30.91
2019-06-26T08:07:48.415Z,30.98
2019-06-26T08:08:48.371Z,31.10
2019-06-26T08:09:48.428Z,31.19
2019-06-26T08:10:48.206Z,31.19
2019-06-26T08:11:48.171Z,30.94
2019-06-26T08:12:48.073Z,30.97
2019-06-26T08:13:48.222Z,30.90
2019-06-26T08:14:47.964Z,30.85
2019-06-26T08:15:47.878Z,30.98
2019-06-26T08:16:47.810Z,30.94
2019-06-26T08:17:59.727Z,30.97
2019-06-26T08:18:47.700Z,31.19
2019-06-26T08:19:47.624Z,31.27
2019-06-26T08:21:07.261Z,31.28
2019-06-26T08:21:47.498Z,31.45
2019-06-26T08:22:47.406Z,31.59
2019-06-26T08:23:47.470Z,31.76
2019-06-26T08:24:47.297Z,31.79
2019-06-26T08:25:47.206Z,31.87
2019-06-26T08:26:47.280Z,31.94
2019-06-26T08:27:47.079Z,31.85
2019-06-26T08:28:47.063Z,31.90
2019-06-26T08:29:47.136Z,31.84
2019-06-26T08:30:46.886Z,31.75
2019-06-26T08:31:46.905Z,31.59
2019-06-26T08:32:46.749Z,31.64
2019-06-26T08:33:47.738Z,31.59
2019-06-26T08:34:46.637Z,31.53
2019-06-26T08:35:46.550Z,31.45
2019-06-26T08:36:46.590Z,31.35
2019-06-26T08:37:46.542Z,31.46
2019-06-26T08:38:46.371Z,31.45
2019-06-26T08:39:46.300Z,31.69
2019-06-26T08:40:46.237Z,31.53
2019-06-26T08:41:46.155Z,31.65
2019-06-26T08:42:46.158Z,31.72
2019-06-26T08:43:46.027Z,31.92
2019-06-26T08:44:46.018Z,31.97
2019-06-26T08:45:45.930Z,32.10
2019-06-26T08:46:45.873Z,32.28
2019-06-26T08:47:45.782Z,32.27
2019-06-26T08:48:45.706Z,32.32
2019-06-26T08:49:45.798Z,31.97
2019-06-26T08:50:45.630Z,31.94
2019-06-26T08:51:45.521Z,32.02
2019-06-26T08:52:45.451Z,32.05
2019-06-26T08:53:45.376Z,32.05
2019-06-26T08:54:45.315Z,32.03
2019-06-26T08:55:45.266Z,31.98
2019-06-26T08:56:45.193Z,32.09
2019-06-26T08:57:45.169Z,32.02
2019-06-26T08:58:45.058Z,32.19
2019-06-26T08:59:44.987Z,32.34
2019-06-26T09:00:44.955Z,32.51
2019-06-26T09:01:44.894Z,32.56
2019-06-26T09:02:44.790Z,32.61
2019-06-26T09:03:44.733Z,32.63
2019-06-26T09:04:44.668Z,32.62
2019-06-26T09:05:48.481Z,32.46
2019-06-26T09:06:44.535Z,32.50
2019-06-26T09:07:44.536Z,32.40
2019-06-26T09:08:44.429Z,32.49
2019-06-26T09:09:44.343Z,32.69
2019-06-26T09:10:45.262Z,32.78
2019-06-26T09:11:44.215Z,32.76
2019-06-26T09:12:44.159Z,32.66
2019-06-26T09:13:44.086Z,32.68
2019-06-26T09:14:44.036Z,32.76
2019-06-26T09:15:43.973Z,32.88
2019-06-26T09:16:43.891Z,32.84
2019-06-26T09:17:43.849Z,32.62
2019-06-26T09:18:43.768Z,32.65
2019-06-26T09:19:43.702Z,32.47
2019-06-26T09:20:43.693Z,32.47
2019-06-26T09:21:43.575Z,32.69
2019-06-26T09:22:43.522Z,32.80
2019-06-26T09:23:43.455Z,32.96
2019-06-26T09:24:43.394Z,33.11
2019-06-26T09:25:43.338Z,32.95
2019-06-26T09:26:43.266Z,32.93
2019-06-26T09:27:43.194Z,33.14
2019-06-26T09:28:43.151Z,33.06
2019-06-26T09:29:43.073Z,32.73
2019-06-26T09:30:43.028Z,32.73
2019-06-26T09:31:42.944Z,32.71
2019-06-26T09:32:42.890Z,32.83
2019-06-26T09:33:42.818Z,32.95
2019-06-26T09:34:42.786Z,33.12
2019-06-26T09:35:42.705Z,33.12
2019-06-26T09:36:42.625Z,33.26
2019-06-26T09:37:42.576Z,33.43
2019-06-26T09:38:42.500Z,33.37
2019-06-26T09:39:42.438Z,33.38
2019-06-26T09:40:42.399Z,33.11
2019-06-26T09:41:42.310Z,32.91
2019-06-26T09:42:42.256Z,32.91
2019-06-26T09:43:42.183Z,32.96
2019-06-26T09:44:42.131Z,33.14
2019-06-26T09:45:42.074Z,33.21
2019-06-26T09:46:42.020Z,33.37
2019-06-26T09:47:41.938Z,33.26
2019-06-26T09:48:52.309Z,33.34
2019-06-26T09:49:41.923Z,33.52
2019-06-26T09:50:41.763Z,33.66
2019-06-26T09:51:41.690Z,33.55
2019-06-26T09:52:41.619Z,33.50
2019-06-26T09:53:46.994Z,33.59
2019-06-26T09:54:41.498Z,33.70
2019-06-26T09:55:41.446Z,33.74
2019-06-26T09:56:41.375Z,33.60
2019-06-26T09:57:41.311Z,33.41
2019-06-26T09:58:41.302Z,33.38
2019-06-26T09:59:41.192Z,33.62
2019-06-26T10:00:41.140Z,33.53
2019-06-26T10:01:41.065Z,33.55
2019-06-26T10:02:41.022Z,33.53
2019-06-26T10:03:44.074Z,33.57
2019-06-26T10:04:40.879Z,33.60
2019-06-26T10:05:40.826Z,33.79
2019-06-26T10:06:40.768Z,33.79
2019-06-26T10:07:40.687Z,33.82
2019-06-26T10:08:40.635Z,33.86
2019-06-26T10:09:40.570Z,33.82
2019-06-26T10:10:40.531Z,33.84
2019-06-26T10:11:40.451Z,33.92
2019-06-26T10:12:40.385Z,33.92
2019-06-26T10:13:40.322Z,33.89
2019-06-26T10:14:47.222Z,33.94
2019-06-26T10:15:40.217Z,33.79
2019-06-26T10:16:40.142Z,33.72
2019-06-26T10:17:40.076Z,33.59
2019-06-26T10:18:40.120Z,33.56
2019-06-26T10:19:39.960Z,33.53
2019-06-26T10:20:39.910Z,33.45
2019-06-26T10:21:39.830Z,33.35
2019-06-26T10:22:39.769Z,33.17
2019-06-26T10:23:39.728Z,33.37
2019-06-26T10:24:39.669Z,33.53
2019-06-26T10:25:39.606Z,33.52
2019-06-26T10:26:39.525Z,33.41
2019-06-26T10:27:39.459Z,33.33
2019-06-26T10:28:39.405Z,33.55
2019-06-26T10:29:39.369Z,33.52
2019-06-26T10:30:39.564Z,33.52
2019-06-26T10:31:39.228Z,33.53
2019-06-26T10:32:39.158Z,33.62
2019-06-26T10:33:39.087Z,33.41
2019-06-26T10:34:39.036Z,33.55
2019-06-26T10:35:38.979Z,33.72
2019-06-26T10:36:38.906Z,33.53
2019-06-26T10:37:38.862Z,33.70
2019-06-26T10:38:38.812Z,33.71
2019-06-26T10:39:38.719Z,33.52
2019-06-26T10:40:38.681Z,33.66
2019-06-26T10:41:38.615Z,33.78
2019-06-26T10:42:38.542Z,33.87
2019-06-26T10:43:38.489Z,33.92
2019-06-26T10:44:38.411Z,33.87
2019-06-26T10:45:38.371Z,33.82
2019-06-26T10:46:38.298Z,33.43
2019-06-26T10:47:39.853Z,33.22
2019-06-26T10:48:38.174Z,33.15
2019-06-26T10:49:38.118Z,33.34
2019-06-26T10:50:48.247Z,33.44
2019-06-26T10:51:37.990Z,33.52
2019-06-26T10:52:37.963Z,33.40
2019-06-26T10:53:37.884Z,33.47
2019-06-26T10:54:37.807Z,33.63
2019-06-26T10:55:37.757Z,33.71
2019-06-26T10:56:37.683Z,33.56
2019-06-26T10:57:37.623Z,33.77
2019-06-26T10:58:37.569Z,33.92
2019-06-26T10:59:37.497Z,33.92
2019-06-26T11:00:37.458Z,33.82
2019-06-26T11:01:37.382Z,33.93
2019-06-26T11:02:37.316Z,33.90
2019-06-26T11:03:37.252Z,33.79
2019-06-26T11:04:37.223Z,33.66
2019-06-26T11:05:37.242Z,33.77
2019-06-26T11:06:37.376Z,33.74
2019-06-26T11:07:37.007Z,33.75
2019-06-26T11:08:36.954Z,33.87
2019-06-26T11:09:36.890Z,33.87
2019-06-26T11:10:36.878Z,33.86
2019-06-26T11:11:36.776Z,33.86
2019-06-26T11:12:36.727Z,33.70
2019-06-26T11:13:36.802Z,33.75
2019-06-26T11:14:36.584Z,33.90
2019-06-26T11:15:36.535Z,34.12
2019-06-26T11:16:36.483Z,34.12
2019-06-26T11:17:36.442Z,34.06
2019-06-26T11:18:36.341Z,34.18
2019-06-26T11:19:43.846Z,34.19
2019-06-26T11:20:36.231Z,34.19
2019-06-26T11:21:36.168Z,34.33
2019-06-26T11:22:36.105Z,34.31
2019-06-26T11:23:36.038Z,34.49
2019-06-26T11:24:35.980Z,34.33
2019-06-26T11:25:35.917Z,34.26
2019-06-26T11:26:35.875Z,34.28
2019-06-26T11:27:35.802Z,34.26
2019-06-26T11:28:35.737Z,34.23
2019-06-26T11:29:35.671Z,34.12
2019-06-26T11:30:35.623Z,34.01
2019-06-26T11:31:35.565Z,34.00
2019-06-26T11:32:35.491Z,33.84
2019-06-26T11:33:35.439Z,33.92
2019-06-26T11:34:35.364Z,33.94
2019-06-26T11:35:35.314Z,34.06
2019-06-26T11:36:35.274Z,34.15
2019-06-26T11:37:35.190Z,33.94
2019-06-26T11:38:35.125Z,34.01
2019-06-26T11:39:35.068Z,34.00
2019-06-26T11:40:35.011Z,34.03
2019-06-26T11:41:34.961Z,34.15
2019-06-26T11:42:34.940Z,34.26
2019-06-26T11:43:34.824Z,34.14
2019-06-26T11:44:34.791Z,34.26
2019-06-26T11:45:34.704Z,34.12
2019-06-26T11:46:36.940Z,33.92
2019-06-26T11:47:34.582Z,33.90
2019-06-26T11:48:34.525Z,34.11
2019-06-26T11:49:34.459Z,34.16
2019-06-26T11:50:34.400Z,34.12
2019-06-26T11:51:34.361Z,34.37
2019-06-26T11:52:34.488Z,34.23
2019-06-26T11:53:34.212Z,33.90
2019-06-26T11:54:34.165Z,33.94
2019-06-26T11:55:34.091Z,33.99
2019-06-26T11:56:34.050Z,34.09
2019-06-26T11:57:33.969Z,33.96
2019-06-26T11:58:33.910Z,33.92
2019-06-26T11:59:33.850Z,34.14
2019-06-26T12:00:33.803Z,34.11
2019-06-26T12:01:33.738Z,34.19
2019-06-26T12:02:33.671Z,34.21
2019-06-26T12:03:33.600Z,33.96
2019-06-26T12:04:33.548Z,33.99
2019-06-26T12:05:33.491Z,34.09
2019-06-26T12:06:33.429Z,34.27
2019-06-26T12:07:33.358Z,34.31
2019-06-26T12:08:33.303Z,34.42
2019-06-26T12:09:33.235Z,34.26
2019-06-26T12:10:33.169Z,34.28
2019-06-26T12:11:33.141Z,34.38
2019-06-26T12:12:33.093Z,34.52
2019-06-26T12:13:33.573Z,34.36
2019-06-26T12:14:32.939Z,34.33
2019-06-26T12:15:32.872Z,34.11
2019-06-26T12:16:32.826Z,34.14
2019-06-26T12:17:32.764Z,34.28
2019-06-26T12:18:32.685Z,34.23
2019-06-26T12:19:32.634Z,34.36
2019-06-26T12:20:32.568Z,34.30
2019-06-26T12:21:32.522Z,34.12
2019-06-26T12:22:32.439Z,34.23
2019-06-26T12:23:32.409Z,34.24
2019-06-26T12:24:32.329Z,34.18
2019-06-26T12:25:32.264Z,33.99
2019-06-26T12:26:32.210Z,33.90
2019-06-26T12:27:32.177Z,33.84
2019-06-26T12:28:32.078Z,33.93
2019-06-26T12:29:33.073Z,34.05
2019-06-26T12:30:31.962Z,34.01
2019-06-26T12:31:31.903Z,33.97
2019-06-26T12:32:41.480Z,34.19
2019-06-26T12:33:31.771Z,34.14
2019-06-26T12:34:31.722Z,34.26
2019-06-26T12:35:31.645Z,34.18
2019-06-26T12:36:31.610Z,34.23
2019-06-26T12:37:37.656Z,34.16
2019-06-26T12:38:31.464Z,34.16
2019-06-26T12:39:31.403Z,34.14
2019-06-26T12:40:31.560Z,34.09
2019-06-26T12:41:31.304Z,34.00
2019-06-26T12:42:31.226Z,33.96
2019-06-26T12:43:31.156Z,34.03
2019-06-26T12:44:31.098Z,33.94
2019-06-26T12:45:31.050Z,33.89
2019-06-26T12:46:30.985Z,34.15
2019-06-26T12:47:30.908Z,34.08
2019-06-26T12:48:30.871Z,34.08
2019-06-26T12:49:30.786Z,34.12
2019-06-26T12:50:35.783Z,34.19
2019-06-26T12:51:30.683Z,33.94